59NY weather

Bent-Wing Airport
Lockport, New York, United States

Public forecast

Using degrees Fahrenheit for public forecast. Weather courtesy of forecast.io.

Closest aviation weather report (METAR) to Bent-Wing Airport

Closest report is Niagara Falls International Airport, 13.4 nm (24.9 km) WSW. Retrieved 2019/10/14 10:53 UTC (52 minutes ago):

KIAG 141053Z 25011KT 10SM SCT065 OVC085 09/02 A2990 RMK AO2 SLP129 T00890022

Closest aviation forecast (TAF) to Bent-Wing Airport

Closest forecast is Niagara Falls International Airport, 13.4 nm (24.9 km) WSW. Retrieved 2019/10/14 06:22 UTC (5 hours ago):

TAF KIAG 140520Z 1406/1506 27005KT P6SM BKN060 FM141400 27010G16KT P6SM BKN040 FM141500 27012KT P6SM BKN045 FM141600 27012G18KT P6SM SCT080 FM142200 27009KT P6SM FEW250